createdAt,value
2023-03-13T00:00:47.798Z,6.38
2023-03-13T00:03:14.367Z,6.43
2023-03-13T00:05:40.931Z,6.42
2023-03-13T00:08:07.493Z,4.08
2023-03-13T00:10:38.332Z,5.94
2023-03-13T00:13:04.963Z,6.26
2023-03-13T00:15:31.552Z,5.82
2023-03-13T00:17:58.161Z,4.86
2023-03-13T00:20:24.866Z,5.95
2023-03-13T00:22:51.536Z,6.29
2023-03-13T00:25:18.170Z,6.33
2023-03-13T00:27:46.132Z,6.32
2023-03-13T00:30:13.227Z,6.32
2023-03-13T00:32:41.200Z,6.33
2023-03-13T00:35:08.357Z,6.25
2023-03-13T00:37:35.051Z,4.32
2023-03-13T00:40:01.634Z,4.81
2023-03-13T00:42:28.248Z,6.02
2023-03-13T00:44:56.214Z,6.18
2023-03-13T00:47:22.816Z,6.22
2023-03-13T00:49:50.234Z,6.25
2023-03-13T00:52:16.970Z,6.24
2023-03-13T00:54:43.546Z,5.79
2023-03-13T00:57:10.109Z,4.80
2023-03-13T00:59:36.927Z,6.13
2023-03-13T01:02:05.150Z,6.11
2023-03-13T01:04:31.750Z,6.04
2023-03-13T01:06:58.385Z,6.18
2023-03-13T01:09:25.017Z,6.03
2023-03-13T01:11:51.590Z,6.21
2023-03-13T01:14:19.933Z,6.22
2023-03-13T01:16:47.245Z,6.19
2023-03-13T01:19:16.809Z,6.12
2023-03-13T01:21:45.085Z,6.21
2023-03-13T01:24:11.877Z,6.24
2023-03-13T01:26:39.087Z,6.21
2023-03-13T01:29:05.821Z,6.21
2023-03-13T01:31:34.540Z,6.21
2023-03-13T01:34:03.195Z,6.17
2023-03-13T01:36:31.686Z,4.63
2023-03-13T01:39:00.292Z,1.95
2023-03-13T01:41:28.916Z,5.13
2023-03-13T01:43:55.725Z,4.17
2023-03-13T01:46:24.893Z,5.78
2023-03-13T01:48:54.745Z,5.97
2023-03-13T01:51:26.760Z,6.01
2023-03-13T01:54:00.890Z,5.44
2023-03-13T01:56:33.206Z,5.76
2023-03-13T01:59:00.471Z,5.76
2023-03-13T02:01:27.809Z,4.91
2023-03-13T02:03:56.661Z,5.86
2023-03-13T02:06:23.961Z,5.97
2023-03-13T02:08:55.524Z,6.00
2023-03-13T02:11:29.111Z,6.03
2023-03-13T02:13:58.846Z,5.92
2023-03-13T02:16:26.206Z,6.00
2023-03-13T02:18:52.842Z,5.99
2023-03-13T02:21:32.058Z,5.52
2023-03-13T02:24:06.618Z,3.64
2023-03-13T02:26:34.584Z,5.64
2023-03-13T02:29:01.267Z,5.89
2023-03-13T02:31:27.936Z,5.94
2023-03-13T02:33:55.938Z,5.93
2023-03-13T02:36:23.572Z,5.93
2023-03-13T02:38:55.326Z,5.93
2023-03-13T02:41:23.377Z,5.90
2023-03-13T02:43:51.259Z,5.88
2023-03-13T02:46:19.885Z,5.90
2023-03-13T02:48:48.373Z,5.89
2023-03-13T02:51:20.217Z,5.90
2023-03-13T02:53:49.064Z,5.89
2023-03-13T02:56:17.613Z,5.54
2023-03-13T02:58:51.404Z,5.83
2023-03-13T03:01:19.409Z,5.88
2023-03-13T03:03:46.073Z,5.53
2023-03-13T03:06:12.664Z,5.73
2023-03-13T03:08:41.501Z,5.83
2023-03-13T03:11:08.131Z,5.85
2023-03-13T03:13:34.927Z,5.83
2023-03-13T03:16:06.110Z,5.84
2023-03-13T03:18:34.709Z,5.79
2023-03-13T03:21:01.436Z,5.79
2023-03-13T03:23:28.028Z,5.84
2023-03-13T03:25:54.608Z,5.80
2023-03-13T03:28:21.170Z,5.82
2023-03-13T03:30:47.735Z,5.80
2023-03-13T03:33:14.295Z,5.76
2023-03-13T03:35:42.288Z,5.76
2023-03-13T03:38:08.873Z,5.75
2023-03-13T03:40:35.520Z,5.73
2023-03-13T03:43:02.466Z,5.78
2023-03-13T03:45:29.154Z,5.73
2023-03-13T03:47:59.645Z,5.73
2023-03-13T03:50:26.274Z,5.76
2023-03-13T03:52:54.266Z,4.62
2023-03-13T03:55:20.902Z,5.52
2023-03-13T03:57:47.528Z,5.66
2023-03-13T04:00:16.040Z,5.34
2023-03-13T04:02:43.037Z,4.05
2023-03-13T04:05:10.190Z,3.86
2023-03-13T04:07:36.962Z,5.25
2023-03-13T04:10:05.743Z,5.51
2023-03-13T04:12:32.315Z,5.20
2023-03-13T04:14:58.930Z,3.44
2023-03-13T04:17:25.999Z,4.67
2023-03-13T04:19:52.626Z,4.07
2023-03-13T04:22:19.195Z,5.27
2023-03-13T04:24:45.775Z,4.73
2023-03-13T04:27:13.663Z,4.93
2023-03-13T04:29:40.252Z,5.37
2023-03-13T04:32:07.190Z,5.27
2023-03-13T04:34:33.989Z,5.47
2023-03-13T04:37:00.661Z,5.51
2023-03-13T04:39:27.342Z,5.48
2023-03-13T04:41:54.740Z,5.52
2023-03-13T04:44:23.441Z,5.50
2023-03-13T04:46:50.013Z,5.54
2023-03-13T04:49:16.964Z,3.48
2023-03-13T04:51:44.619Z,5.00
2023-03-13T04:54:12.064Z,5.31
2023-03-13T04:56:43.800Z,5.39
2023-03-13T04:59:12.422Z,5.45
2023-03-13T05:01:41.144Z,5.10
2023-03-13T05:04:08.217Z,5.28
2023-03-13T05:06:35.064Z,5.41
2023-03-13T05:09:01.687Z,4.09
2023-03-13T05:11:28.327Z,5.22
2023-03-13T05:13:54.960Z,5.37
2023-03-13T05:16:21.672Z,5.41
2023-03-13T05:18:49.674Z,5.44
2023-03-13T05:21:16.460Z,5.45
2023-03-13T05:23:43.007Z,5.48
2023-03-13T05:26:09.591Z,4.69
2023-03-13T05:28:36.186Z,3.64
2023-03-13T05:31:02.786Z,5.01
2023-03-13T05:33:29.346Z,5.23
2023-03-13T05:35:57.326Z,5.01
2023-03-13T05:38:23.971Z,5.32
2023-03-13T05:40:50.522Z,5.34
2023-03-13T05:43:17.098Z,5.37
2023-03-13T05:45:43.706Z,5.38
2023-03-13T05:48:10.431Z,5.38
2023-03-13T05:50:36.990Z,5.36
2023-03-13T05:53:04.901Z,4.73
2023-03-13T05:55:31.467Z,4.15
2023-03-13T05:57:58.063Z,5.08
2023-03-13T06:00:24.884Z,5.26
2023-03-13T06:02:51.484Z,4.28
2023-03-13T06:05:18.469Z,5.03
2023-03-13T06:07:45.177Z,4.44
2023-03-13T06:10:13.237Z,5.17
2023-03-13T06:12:39.878Z,5.29
2023-03-13T06:15:07.566Z,5.30
2023-03-13T06:17:34.118Z,5.32
2023-03-13T06:20:00.744Z,5.28
2023-03-13T06:22:27.479Z,5.32
2023-03-13T06:24:54.043Z,5.30
2023-03-13T06:27:22.024Z,5.35
2023-03-13T06:29:48.738Z,5.27
2023-03-13T06:32:15.655Z,5.31
2023-03-13T06:34:42.252Z,4.95
2023-03-13T06:37:08.914Z,5.18
2023-03-13T06:39:35.587Z,4.45
2023-03-13T06:42:02.322Z,4.26
2023-03-13T06:44:30.310Z,5.01
2023-03-13T06:46:57.023Z,5.17
2023-03-13T06:49:23.738Z,5.22
2023-03-13T06:51:50.348Z,5.26
2023-03-13T06:54:16.936Z,5.28
2023-03-13T06:56:43.562Z,5.28
2023-03-13T06:59:10.145Z,5.15
2023-03-13T07:01:38.281Z,5.26
2023-03-13T07:04:04.944Z,4.95
2023-03-13T07:06:31.646Z,4.66
2023-03-13T07:08:58.219Z,4.86
2023-03-13T07:11:25.958Z,4.70
2023-03-13T07:14:00.499Z,4.66
2023-03-13T07:16:37.962Z,5.06
2023-03-13T07:19:04.540Z,5.19
2023-03-13T07:21:31.125Z,5.22
2023-03-13T07:23:57.807Z,5.25
2023-03-13T07:26:24.450Z,5.25
2023-03-13T07:28:51.130Z,5.29
2023-03-13T07:31:19.874Z,5.21
2023-03-13T07:33:48.026Z,5.22
2023-03-13T07:36:15.674Z,5.26
2023-03-13T07:38:43.952Z,5.22
2023-03-13T07:41:12.180Z,5.20
2023-03-13T07:43:38.922Z,5.22
2023-03-13T07:46:07.209Z,5.34
2023-03-13T07:48:36.459Z,5.28
2023-03-13T07:51:06.913Z,5.25
2023-03-13T07:53:34.443Z,5.50
2023-03-13T07:56:02.822Z,5.29
2023-03-13T07:58:30.984Z,5.37
2023-03-13T08:00:58.526Z,5.79
2023-03-13T08:03:26.029Z,5.82
2023-03-13T08:06:00.069Z,5.46
2023-03-13T08:08:28.829Z,5.38
2023-03-13T08:10:59.875Z,6.16
2023-03-13T08:13:26.565Z,5.96
2023-03-13T08:15:53.161Z,5.47
2023-03-13T08:18:19.780Z,5.39
2023-03-13T08:20:46.414Z,5.37
2023-03-13T08:23:12.968Z,6.48
2023-03-13T08:25:40.888Z,7.37
2023-03-13T08:28:07.474Z,7.48
2023-03-13T08:30:34.082Z,7.41
2023-03-13T08:33:00.784Z,7.63
2023-03-13T08:35:28.822Z,7.20
2023-03-13T08:37:55.392Z,5.92
2023-03-13T08:40:21.938Z,6.55
2023-03-13T08:42:49.824Z,6.11
2023-03-13T08:45:16.477Z,5.85
2023-03-13T08:47:43.048Z,5.69
2023-03-13T08:50:10.714Z,5.77
2023-03-13T08:52:37.287Z,5.93
2023-03-13T08:55:04.504Z,5.95
2023-03-13T08:57:31.038Z,5.70
2023-03-13T08:59:58.924Z,5.63
2023-03-13T09:02:25.549Z,5.69
2023-03-13T09:04:52.386Z,6.83
2023-03-13T09:07:18.932Z,6.19
2023-03-13T09:09:45.535Z,5.93
2023-03-13T09:12:24.530Z,6.00
2023-03-13T09:14:56.387Z,5.93
2023-03-13T09:17:24.266Z,7.35
2023-03-13T09:20:00.089Z,8.01
2023-03-13T09:22:27.357Z,6.70
2023-03-13T09:24:53.945Z,6.34
2023-03-13T09:27:20.506Z,5.92
2023-03-13T09:29:47.094Z,5.85
2023-03-13T09:32:13.658Z,5.82
2023-03-13T09:34:41.593Z,7.62
2023-03-13T09:37:08.831Z,7.46
2023-03-13T09:39:35.462Z,6.28
2023-03-13T09:42:10.857Z,7.07
2023-03-13T09:44:42.824Z,9.75
2023-03-13T09:47:16.973Z,7.19
2023-03-13T09:49:51.299Z,6.41
2023-03-13T09:52:22.195Z,8.34
2023-03-13T09:54:53.357Z,12.01
2023-03-13T09:57:27.014Z,12.57
2023-03-13T09:59:57.714Z,12.37
2023-03-13T10:02:29.942Z,13.77
2023-03-13T10:05:05.127Z,13.29
2023-03-13T10:07:31.949Z,13.86
2023-03-13T10:10:00.951Z,14.28
2023-03-13T10:12:29.669Z,14.81
2023-03-13T10:15:19.749Z,15.71
2023-03-13T10:17:46.486Z,16.26
2023-03-13T10:20:25.036Z,15.41
2023-03-13T10:22:58.423Z,16.43
2023-03-13T10:25:30.340Z,16.83
2023-03-13T10:27:57.942Z,15.94
2023-03-13T10:30:27.004Z,16.79
2023-03-13T10:32:58.057Z,16.53
2023-03-13T10:35:32.798Z,16.33
2023-03-13T10:38:04.391Z,15.73
2023-03-13T10:40:31.048Z,14.74
2023-03-13T10:43:04.066Z,11.33
2023-03-13T10:45:35.437Z,11.13
2023-03-13T10:48:04.700Z,10.66
2023-03-13T10:50:35.852Z,10.29
2023-03-13T10:53:21.851Z,9.14
2023-03-13T10:55:48.872Z,10.18
2023-03-13T10:58:20.106Z,9.13
2023-03-13T11:00:46.792Z,8.77
2023-03-13T11:03:18.230Z,8.70
2023-03-13T11:05:55.618Z,11.08
2023-03-13T11:08:25.037Z,9.82
2023-03-13T11:10:58.055Z,9.00
2023-03-13T11:13:37.509Z,8.76
2023-03-13T11:16:17.970Z,8.46
2023-03-13T11:19:00.326Z,12.58
2023-03-13T11:21:40.146Z,11.66
2023-03-13T11:24:13.405Z,14.68
2023-03-13T11:27:02.071Z,18.36
2023-03-13T11:29:38.706Z,15.91
2023-03-13T11:32:17.374Z,17.79
2023-03-13T11:34:51.611Z,18.10
2023-03-13T11:37:22.309Z,19.31
2023-03-13T11:40:01.058Z,19.16
2023-03-13T11:42:43.897Z,18.04
2023-03-13T11:45:28.320Z,18.51
2023-03-13T11:48:00.934Z,19.08
2023-03-13T11:50:35.969Z,18.61
2023-03-13T11:53:22.820Z,18.49
2023-03-13T11:56:08.544Z,18.52
2023-03-13T11:58:45.850Z,17.18
2023-03-13T12:01:16.241Z,17.54
2023-03-13T12:03:55.836Z,18.30
2023-03-13T12:06:28.360Z,17.76
2023-03-13T12:09:02.170Z,17.33
2023-03-13T12:11:33.081Z,17.54
2023-03-13T12:14:04.631Z,17.41
2023-03-13T12:16:41.362Z,17.57
2023-03-13T12:19:12.030Z,17.41
2023-03-13T12:21:45.217Z,16.78
2023-03-13T12:24:20.306Z,12.48
2023-03-13T12:26:51.798Z,14.90
2023-03-13T12:29:31.398Z,16.73
2023-03-13T12:31:59.884Z,16.71
2023-03-13T12:34:30.872Z,15.70
2023-03-13T12:37:06.774Z,15.96
2023-03-13T12:39:37.710Z,15.61
2023-03-13T12:42:19.371Z,15.82
2023-03-13T12:44:46.791Z,14.51
2023-03-13T12:47:17.726Z,15.46
2023-03-13T12:50:11.875Z,15.37
2023-03-13T12:53:02.507Z,15.75
2023-03-13T12:56:07.994Z,15.23
2023-03-13T12:58:49.371Z,15.28
2023-03-13T13:01:26.323Z,15.24
2023-03-13T13:03:57.801Z,15.50
2023-03-13T13:06:25.649Z,15.42
2023-03-13T13:09:07.652Z,15.36
2023-03-13T13:12:00.512Z,15.53
2023-03-13T13:14:58.910Z,15.95
2023-03-13T13:17:35.099Z,15.83
2023-03-13T13:20:36.934Z,15.93
2023-03-13T13:23:33.545Z,15.76
2023-03-13T13:26:45.932Z,15.00
2023-03-13T13:29:58.223Z,13.28
2023-03-13T13:32:46.690Z,15.42
2023-03-13T13:35:25.642Z,15.24
2023-03-13T13:37:53.655Z,15.49
2023-03-13T13:40:28.587Z,15.63
2023-03-13T13:42:56.296Z,14.96
2023-03-13T13:45:28.935Z,15.73
2023-03-13T13:48:25.559Z,15.68
2023-03-13T13:51:25.074Z,15.88
2023-03-13T13:53:54.335Z,14.46
2023-03-13T13:56:37.952Z,12.58
2023-03-13T13:59:21.247Z,14.54
2023-03-13T14:01:48.835Z,15.82
2023-03-13T14:04:24.965Z,15.85
2023-03-13T14:06:53.497Z,15.76
2023-03-13T14:09:31.689Z,15.91
2023-03-13T14:11:58.319Z,15.32
2023-03-13T14:14:25.153Z,15.18
2023-03-13T14:16:53.835Z,15.33
2023-03-13T14:19:27.159Z,15.90
2023-03-13T14:21:59.694Z,15.82
2023-03-13T14:24:26.326Z,16.02
2023-03-13T14:26:52.988Z,16.09
2023-03-13T14:29:25.829Z,16.02
2023-03-13T14:31:54.241Z,16.06
2023-03-13T14:34:21.076Z,15.97
2023-03-13T14:36:50.499Z,15.77
2023-03-13T14:39:20.256Z,15.47
2023-03-13T14:41:48.828Z,15.07
2023-03-13T14:44:23.505Z,15.48
2023-03-13T14:46:55.948Z,15.22
2023-03-13T14:49:25.727Z,13.29
2023-03-13T14:52:01.711Z,13.48
2023-03-13T14:54:31.352Z,12.75
2023-03-13T14:57:14.928Z,12.92
2023-03-13T14:59:43.136Z,12.53
2023-03-13T15:02:21.705Z,12.63
2023-03-13T15:04:50.463Z,13.32
2023-03-13T15:07:19.407Z,15.40
2023-03-13T15:09:47.888Z,15.19
2023-03-13T15:12:16.910Z,15.27
2023-03-13T15:14:45.186Z,15.59
2023-03-13T15:17:15.079Z,15.66
2023-03-13T15:19:42.038Z,14.81
2023-03-13T15:22:13.707Z,14.18
2023-03-13T15:24:42.013Z,13.51
2023-03-13T15:27:16.396Z,14.22
2023-03-13T15:29:43.297Z,15.16
2023-03-13T15:32:15.792Z,15.28
2023-03-13T15:34:42.361Z,15.01
2023-03-13T15:37:11.808Z,13.82
2023-03-13T15:39:38.397Z,13.82
2023-03-13T15:42:06.691Z,12.83
2023-03-13T15:44:33.299Z,14.16
2023-03-13T15:46:59.919Z,13.00
2023-03-13T15:49:26.611Z,13.28
2023-03-13T15:51:53.713Z,12.78
2023-03-13T15:54:20.357Z,12.52
2023-03-13T15:56:47.937Z,12.69
2023-03-13T15:59:16.383Z,11.99
2023-03-13T16:01:45.010Z,11.83
2023-03-13T16:04:12.392Z,12.14
2023-03-13T16:06:39.029Z,11.89
2023-03-13T16:09:06.973Z,12.66
2023-03-13T16:11:34.012Z,12.02
2023-03-13T16:14:00.838Z,11.83
2023-03-13T16:16:31.002Z,12.88
2023-03-13T16:18:59.010Z,12.62
2023-03-13T16:21:27.492Z,11.82
2023-03-13T16:23:54.721Z,12.33
2023-03-13T16:26:23.791Z,11.78
2023-03-13T16:28:51.083Z,11.96
2023-03-13T16:31:20.325Z,11.98
2023-03-13T16:33:51.718Z,12.19
2023-03-13T16:36:21.849Z,12.25
2023-03-13T16:38:48.811Z,11.63
2023-03-13T16:41:17.027Z,11.57
2023-03-13T16:43:43.804Z,11.49
2023-03-13T16:46:15.720Z,11.56
2023-03-13T16:48:42.409Z,11.47
2023-03-13T16:51:17.376Z,11.36
2023-03-13T16:53:45.980Z,11.41
2023-03-13T16:56:31.671Z,11.36
2023-03-13T16:58:58.400Z,11.35
2023-03-13T17:01:26.049Z,11.28
2023-03-13T17:03:53.305Z,11.31
2023-03-13T17:06:23.619Z,11.28
2023-03-13T17:08:50.903Z,11.24
2023-03-13T17:11:19.377Z,11.68
2023-03-13T17:13:47.697Z,11.53
2023-03-13T17:16:17.578Z,12.03
2023-03-13T17:18:46.112Z,11.33
2023-03-13T17:21:15.944Z,11.43
2023-03-13T17:23:44.510Z,11.23
2023-03-13T17:26:16.849Z,11.15
2023-03-13T17:28:44.439Z,10.94
2023-03-13T17:31:11.372Z,11.14
2023-03-13T17:33:38.219Z,11.16
2023-03-13T17:36:21.787Z,11.14
2023-03-13T17:38:52.261Z,11.09
2023-03-13T17:41:20.593Z,11.16
2023-03-13T17:43:47.733Z,11.11
2023-03-13T17:46:17.690Z,11.10
2023-03-13T17:48:45.610Z,11.07
2023-03-13T17:51:18.025Z,11.18
2023-03-13T17:53:44.856Z,11.01
2023-03-13T17:56:24.055Z,10.81
2023-03-13T17:58:54.280Z,10.94
2023-03-13T18:01:22.359Z,11.05
2023-03-13T18:03:49.593Z,11.07
2023-03-13T18:06:22.104Z,11.31
2023-03-13T18:08:49.965Z,11.17
2023-03-13T18:11:17.452Z,11.19
2023-03-13T18:13:46.484Z,11.18
2023-03-13T18:16:18.421Z,11.24
2023-03-13T18:18:45.662Z,11.26
2023-03-13T18:21:12.274Z,9.05
2023-03-13T18:23:38.852Z,10.45
2023-03-13T18:26:20.342Z,11.14
2023-03-13T18:28:48.963Z,11.18
2023-03-13T18:31:15.591Z,11.27
2023-03-13T18:33:42.727Z,11.27
2023-03-13T18:36:16.248Z,11.20
2023-03-13T18:38:43.508Z,11.21
2023-03-13T18:41:11.065Z,11.17
2023-03-13T18:43:37.853Z,11.25
2023-03-13T18:46:11.634Z,11.28
2023-03-13T18:48:38.240Z,11.23
2023-03-13T18:51:04.988Z,10.01
2023-03-13T18:53:31.588Z,10.07
2023-03-13T18:56:05.926Z,10.90
2023-03-13T18:58:32.486Z,11.21
2023-03-13T19:00:59.061Z,10.76
2023-03-13T19:03:26.996Z,11.10
2023-03-13T19:05:53.555Z,10.25
2023-03-13T19:08:20.161Z,11.11
2023-03-13T19:10:46.871Z,9.58
2023-03-13T19:13:13.552Z,9.41
2023-03-13T19:15:40.109Z,11.02
2023-03-13T19:18:10.288Z,10.57
2023-03-13T19:20:38.238Z,10.44
2023-03-13T19:23:04.877Z,10.96
2023-03-13T19:25:33.960Z,10.06
2023-03-13T19:28:00.538Z,9.92
2023-03-13T19:30:31.834Z,10.15
2023-03-13T19:32:58.587Z,9.35
2023-03-13T19:35:25.771Z,8.49
2023-03-13T19:37:53.732Z,9.76
2023-03-13T19:40:23.118Z,10.36
2023-03-13T19:42:49.777Z,10.62
2023-03-13T19:45:17.696Z,9.34
2023-03-13T19:47:44.704Z,9.66
2023-03-13T19:50:17.422Z,10.00
2023-03-13T19:52:45.427Z,8.91
2023-03-13T19:55:13.651Z,10.21
2023-03-13T19:57:40.779Z,10.23
2023-03-13T20:00:13.938Z,10.48
2023-03-13T20:02:41.644Z,11.08
2023-03-13T20:05:10.338Z,10.94
2023-03-13T20:07:37.475Z,11.54
2023-03-13T20:10:05.391Z,11.22
2023-03-13T20:12:34.264Z,10.95
2023-03-13T20:15:00.982Z,10.28
2023-03-13T20:17:27.561Z,11.40
2023-03-13T20:19:54.254Z,10.98
2023-03-13T20:22:20.896Z,10.56
2023-03-13T20:24:47.569Z,10.95
2023-03-13T20:27:14.320Z,10.99
2023-03-13T20:29:42.260Z,11.10
2023-03-13T20:32:08.837Z,11.76
2023-03-13T20:34:35.829Z,13.00
2023-03-13T20:37:03.820Z,14.15
2023-03-13T20:39:30.861Z,11.57
2023-03-13T20:41:57.509Z,11.15
2023-03-13T20:44:24.188Z,11.13
2023-03-13T20:46:52.265Z,10.62
2023-03-13T20:49:18.928Z,11.03
2023-03-13T20:51:45.517Z,11.04
2023-03-13T20:54:12.420Z,11.32
2023-03-13T20:56:38.999Z,11.19
2023-03-13T20:59:05.602Z,12.78
2023-03-13T21:01:32.495Z,11.28
2023-03-13T21:04:00.641Z,11.16
2023-03-13T21:06:27.327Z,13.26
2023-03-13T21:08:53.908Z,13.14
2023-03-13T21:11:22.063Z,12.76
2023-03-13T21:13:49.147Z,11.91
2023-03-13T21:16:16.591Z,11.53
2023-03-13T21:18:43.428Z,11.33
2023-03-13T21:21:15.046Z,11.45
2023-03-13T21:23:41.838Z,11.96
2023-03-13T21:26:08.460Z,11.70
2023-03-13T21:28:35.277Z,12.22
2023-03-13T21:31:08.797Z,11.39
2023-03-13T21:33:35.583Z,11.70
2023-03-13T21:36:02.180Z,11.94
2023-03-13T21:38:30.274Z,11.77
2023-03-13T21:40:58.357Z,11.40
2023-03-13T21:43:28.088Z,12.31
2023-03-13T21:45:56.317Z,12.86
2023-03-13T21:48:22.880Z,13.81
2023-03-13T21:50:52.230Z,11.98
2023-03-13T21:53:19.381Z,11.47
2023-03-13T21:55:49.878Z,12.04
2023-03-13T21:58:16.467Z,11.42
2023-03-13T22:00:43.103Z,11.33
2023-03-13T22:03:09.744Z,11.30
2023-03-13T22:05:41.348Z,11.29
2023-03-13T22:08:07.960Z,11.98
2023-03-13T22:10:34.660Z,11.64
2023-03-13T22:13:02.562Z,12.77
2023-03-13T22:15:29.271Z,12.07
2023-03-13T22:17:55.819Z,13.40
2023-03-13T22:20:22.415Z,12.12
2023-03-13T22:22:48.999Z,11.50
2023-03-13T22:25:16.031Z,11.56
2023-03-13T22:27:42.883Z,11.59
2023-03-13T22:30:12.232Z,11.56
2023-03-13T22:32:38.865Z,11.37
2023-03-13T22:35:06.875Z,11.37
2023-03-13T22:37:33.467Z,11.37
2023-03-13T22:40:00.137Z,11.33
2023-03-13T22:42:26.916Z,12.17
2023-03-13T22:44:55.497Z,12.14
2023-03-13T22:47:25.726Z,11.67
2023-03-13T22:49:53.457Z,11.93
2023-03-13T22:52:21.334Z,11.73
2023-03-13T22:54:47.979Z,11.46
2023-03-13T22:57:14.571Z,11.39
2023-03-13T22:59:41.184Z,11.33
2023-03-13T23:02:07.785Z,11.31
2023-03-13T23:04:35.837Z,11.30
2023-03-13T23:07:02.413Z,11.39
2023-03-13T23:09:29.069Z,11.47
2023-03-13T23:11:55.725Z,11.22
2023-03-13T23:14:22.314Z,11.22
2023-03-13T23:16:48.960Z,10.96
2023-03-13T23:19:15.571Z,10.92
2023-03-13T23:21:43.641Z,10.91
2023-03-13T23:24:10.267Z,10.84
2023-03-13T23:26:37.109Z,10.90
2023-03-13T23:29:04.216Z,11.13
2023-03-13T23:31:31.620Z,11.18
2023-03-13T23:33:59.097Z,11.20
2023-03-13T23:36:26.396Z,11.20
2023-03-13T23:38:54.463Z,11.22
2023-03-13T23:41:21.828Z,10.69
2023-03-13T23:43:48.626Z,10.63
2023-03-13T23:46:17.130Z,11.07
2023-03-13T23:48:44.059Z,11.16
2023-03-13T23:51:12.091Z,11.19
2023-03-13T23:53:40.004Z,11.19
2023-03-13T23:56:09.597Z,11.22
2023-03-13T23:58:36.253Z,11.02
